Time;durP1;ratioP1;P1;durP2;ratioP2;P2;SDS_P1;SDS_P2;PMS_P1;PMS_P2;Temp;Humidity;BMP_temperature;BMP_pressure;BME280_temperature;BME280_humidity;BME280_pressure;Samples;Min_cycle;Max_cycle;Signal;HPM_P1;HPM_P2
2022/03/14 17:22:17;;;;;;;7.50;2.03;;;17.30;62.80;;;;;;2298616;62;29974;-76
2022/03/14 17:24:47;;;;;;;4.38;2.05;;;17.00;64.80;;;;;;2282984;62;30027;-75
2022/03/14 17:27:13;;;;;;;3.80;1.80;;;16.90;66.10;;;;;;2288889;62;31663;-76
2022/03/14 17:29:42;;;;;;;3.42;1.60;;;16.90;67.20;;;;;;2288430;62;32009;-77
2022/03/14 17:32:10;;;;;;;5.78;1.85;;;16.80;67.90;;;;;;2275747;62;30414;-73
2022/03/14 17:34:36;;;;;;;8.77;2.22;;;16.80;68.60;;;;;;2283746;62;30215;-73
2022/03/14 17:37:02;;;;;;;4.10;1.60;;;16.70;69.10;;;;;;2290830;62;30111;-73
2022/03/14 17:39:28;;;;;;;3.45;1.55;;;16.70;69.40;;;;;;2283421;62;33096;-74
2022/03/14 17:41:54;;;;;;;3.00;1.77;;;16.60;69.60;;;;;;2291202;62;29994;-73
2022/03/14 17:44:21;;;;;;;3.58;1.70;;;16.60;69.80;;;;;;2290903;62;30056;-73
2022/03/14 17:46:47;;;;;;;4.43;1.80;;;16.50;69.90;;;;;;2273716;62;30846;-73
2022/03/14 17:49:13;;;;;;;2.80;1.58;;;16.50;70.00;;;;;;2282212;62;31946;-73
2022/03/14 17:51:39;;;;;;;4.03;1.88;;;16.50;70.00;;;;;;2289847;62;30301;-72
2022/03/14 17:54:05;;;;;;;3.63;1.50;;;16.50;70.00;;;;;;2289182;62;30124;-72
2022/03/14 17:56:31;;;;;;;2.47;1.55;;;16.50;70.00;;;;;;2289395;62;30449;-71
2022/03/14 17:58:59;;;;;;;4.18;1.40;;;16.50;70.00;;;;;;2288761;62;30746;-74
2022/03/14 18:01:26;;;;;;;3.95;1.52;;;16.50;70.00;;;;;;2287479;62;34424;-73
2022/03/14 18:03:52;;;;;;;3.10;1.52;;;16.50;69.90;;;;;;2282229;62;30119;-73
2022/03/14 18:06:18;;;;;;;3.40;1.60;;;16.50;69.90;;;;;;2289540;62;30198;-73
2022/03/14 18:08:45;;;;;;;3.35;1.50;;;16.50;69.70;;;;;;2275463;62;31070;-74
2022/03/14 18:11:11;;;;;;;2.70;1.73;;;16.60;69.80;;;;;;2289715;62;30365;-74
2022/03/14 18:13:36;;;;;;;3.30;1.42;;;16.60;69.60;;;;;;2289446;62;30211;-74
2022/03/14 18:16:04;;;;;;;2.70;1.45;;;16.70;69.50;;;;;;2289494;62;30352;-75
2022/03/14 18:18:30;;;;;;;3.67;1.90;;;16.70;69.50;;;;;;2282263;62;30313;-74
2022/03/14 18:20:58;;;;;;;5.57;1.80;;;16.70;69.40;;;;;;2289163;62;30749;-74
2022/03/14 18:23:24;;;;;;;3.58;1.90;;;16.70;69.20;;;;;;2288029;62;30168;-74
2022/03/14 18:25:52;;;;;;;3.80;1.63;;;16.70;69.80;;;;;;2289222;62;30168;-73
2022/03/14 18:28:18;;;;;;;3.67;2.20;;;16.70;69.00;;;;;;2289420;62;30014;-74
2022/03/14 18:30:44;;;;;;;2.80;2.00;;;16.70;69.10;;;;;;2289615;62;30831;-74
2022/03/14 18:33:10;;;;;;;3.50;1.95;;;16.70;69.00;;;;;;2285178;62;30101;-73
2022/03/14 18:35:39;;;;;;;3.40;1.73;;;16.70;69.00;;;;;;2283694;62;30331;-74
2022/03/14 18:38:07;;;;;;;5.22;2.10;;;16.70;68.90;;;;;;2276836;62;30752;-74
2022/03/14 18:40:36;;;;;;;6.30;2.70;;;16.80;68.90;;;;;;2276254;62;30735;-72
2022/03/14 18:43:04;;;;;;;4.70;2.00;;;16.80;68.80;;;;;;2283739;62;30220;-73
2022/03/14 18:45:30;;;;;;;14.02;2.72;;;16.80;68.80;;;;;;2276665;62;30431;-73
2022/03/14 18:47:56;;;;;;;3.22;1.70;;;16.80;68.80;;;;;;2283962;62;31120;-73
2022/03/14 18:50:23;;;;;;;2.08;1.88;;;16.90;68.70;;;;;;2283805;62;30558;-73
2022/03/14 18:52:49;;;;;;;3.38;1.80;;;16.90;68.70;;;;;;2284111;62;30214;-72
2022/03/14 18:55:15;;;;;;;3.33;1.83;;;17.00;68.70;;;;;;2276435;62;30307;-72
2022/03/14 18:57:43;;;;;;;4.15;1.90;;;17.00;68.60;;;;;;2276479;62;30022;-73
2022/03/14 19:00:10;;;;;;;2.83;1.80;;;17.10;68.60;;;;;;2269924;62;30546;-73
2022/03/14 19:02:36;;;;;;;2.92;1.77;;;17.20;68.60;;;;;;2268656;62;30049;-73
2022/03/14 19:05:02;;;;;;;4.35;1.70;;;17.20;68.40;;;;;;2275526;62;30611;-75
2022/03/14 19:07:28;;;;;;;3.65;1.65;;;17.30;68.40;;;;;;2281160;62;31370;-74
2022/03/14 19:09:55;;;;;;;2.40;1.83;;;17.30;68.20;;;;;;2283481;62;30012;-73
2022/03/14 19:12:20;;;;;;;1.92;1.65;;;17.30;68.20;;;;;;2282996;62;30124;-74
2022/03/14 19:14:47;;;;;;;4.38;2.50;;;17.30;68.00;;;;;;2280519;62;30099;-75
2022/03/14 19:17:16;;;;;;;3.13;1.67;;;17.40;68.00;;;;;;2281733;62;30119;-73
2022/03/14 19:19:45;;;;;;;3.30;1.75;;;17.40;67.90;;;;;;2282739;62;30432;-74
2022/03/14 19:22:11;;;;;;;3.95;2.10;;;17.40;67.90;;;;;;2281767;62;30760;-73
2022/03/14 19:24:37;;;;;;;5.72;2.05;;;17.40;67.80;;;;;;2275003;62;30175;-74
2022/03/14 19:27:05;;;;;;;4.25;1.90;;;17.40;67.70;;;;;;2279357;62;30601;-73
2022/03/14 19:29:31;;;;;;;2.60;1.73;;;17.40;67.60;;;;;;2283856;62;30282;-72
2022/03/14 19:32:02;;;;;;;1.77;1.52;;;17.50;67.50;;;;;;2282439;62;29972;-72
2022/03/14 19:34:29;;;;;;;2.20;1.88;;;17.50;67.50;;;;;;2276531;62;30201;-73
2022/03/14 19:36:55;;;;;;;3.10;1.60;;;17.50;67.40;;;;;;2264204;62;30935;-73
2022/03/14 19:39:21;;;;;;;2.97;1.45;;;17.50;67.40;;;;;;2267914;62;30939;-73
2022/03/14 19:41:47;;;;;;;3.22;2.15;;;17.40;67.30;;;;;;2275513;62;30487;-73
2022/03/14 19:44:13;;;;;;;1.65;1.52;;;17.40;67.20;;;;;;2260827;62;30293;-73
2022/03/14 19:46:40;;;;;;;1.50;1.30;;;17.40;67.30;;;;;;2267884;62;32651;-73
2022/03/14 19:49:07;;;;;;;2.97;1.90;;;17.40;67.20;;;;;;2275456;62;30443;-73
2022/03/14 19:51:36;;;;;;;2.20;1.67;;;17.40;67.20;;;;;;2275446;62;30079;-73
2022/03/14 19:54:03;;;;;;;3.22;1.70;;;17.40;67.10;;;;;;2267848;62;30574;-73
2022/03/14 19:56:30;;;;;;;1.50;1.40;;;17.40;67.10;;;;;;2268012;62;30085;-73
2022/03/14 19:58:56;;;;;;;2.50;1.77;;;17.40;67.10;;;;;;2261356;62;30340;-72
2022/03/14 20:01:23;;;;;;;2.13;1.30;;;17.40;67.10;;;;;;2275221;62;30309;-73
2022/03/14 20:03:49;;;;;;;4.10;1.50;;;17.40;67.10;;;;;;2275131;62;30588;-73
2022/03/14 20:06:17;;;;;;;2.85;1.48;;;17.40;67.00;;;;;;2275080;62;30530;-73
2022/03/14 20:08:48;;;;;;;1.75;1.48;;;17.40;67.00;;;;;;2275420;62;30044;-73
2022/03/14 20:11:18;;;;;;;1.63;1.27;;;17.40;67.00;;;;;;2268037;62;30131;-73
2022/03/14 20:13:55;;;;;;;1.63;1.52;;;17.40;67.00;;;;;;2275132;62;30141;-73
2022/03/14 20:16:22;;;;;;;1.80;1.67;;;17.40;67.00;;;;;;2275347;62;30184;-73
2022/03/14 20:18:48;;;;;;;2.28;1.50;;;17.40;67.00;;;;;;2279384;62;30409;-73
2022/03/14 20:21:20;;;;;;;1.70;1.48;;;17.40;67.00;;;;;;2272161;62;30477;-73
2022/03/14 20:23:46;;;;;;;2.47;1.67;;;17.30;66.90;;;;;;2272059;62;30133;-73
2022/03/14 20:26:11;;;;;;;2.30;1.60;;;17.30;66.90;;;;;;2268141;62;29987;-73
2022/03/14 20:28:39;;;;;;;2.78;1.77;;;17.30;67.60;;;;;;2264525;62;32066;-74
2022/03/14 20:31:05;;;;;;;1.63;1.30;;;17.30;66.90;;;;;;2266946;62;30388;-75
2022/03/14 20:33:32;;;;;;;6.20;1.88;;;17.20;66.90;;;;;;2269516;62;30202;-73
2022/03/14 20:35:58;;;;;;;2.85;1.70;;;17.20;67.50;;;;;;2274888;62;30100;-74
2022/03/14 20:38:26;;;;;;;3.38;1.50;;;17.20;67.10;;;;;;2274524;62;30165;-73
2022/03/14 20:40:53;;;;;;;2.30;1.50;;;17.20;67.20;;;;;;2266822;62;30613;-72
2022/03/14 20:43:19;;;;;;;1.70;1.58;;;17.30;67.30;;;;;;2258442;63;30210;-73
2022/03/14 20:45:45;;;;;;;2.28;1.50;;;17.40;67.20;;;;;;2258923;62;31014;-73
2022/03/14 20:48:10;;;;;;;1.65;1.25;;;17.40;67.10;;;;;;2258662;62;30527;-74
2022/03/14 20:50:36;;;;;;;1.50;1.20;;;17.50;67.10;;;;;;2258888;62;30181;-73
2022/03/14 20:53:03;;;;;;;1.70;1.45;;;17.50;67.00;;;;;;2258246;63;30112;-73
2022/03/14 20:55:32;;;;;;;3.35;1.30;;;17.50;66.90;;;;;;2258423;62;31858;-72
2022/03/14 20:57:58;;;;;;;2.30;1.40;;;17.60;66.90;;;;;;2258858;62;30110;-74
2022/03/14 21:00:24;;;;;;;1.90;1.40;;;17.60;66.80;;;;;;2258734;62;30555;-73
2022/03/14 21:03:11;;;;;;;2.25;1.50;;;17.60;66.70;;;;;;2257986;63;30141;-72
2022/03/14 21:05:40;;;;;;;1.50;1.40;;;17.70;66.70;;;;;;2258898;62;30912;-71
2022/03/14 21:08:07;;;;;;;2.33;1.40;;;17.70;66.60;;;;;;2258236;63;30625;-72
2022/03/14 21:10:33;;;;;;;1.77;1.40;;;17.70;66.50;;;;;;2258659;62;30622;-72
2022/03/14 21:13:06;;;;;;;1.20;1.10;;;17.70;66.50;;;;;;2251578;63;30024;-72
2022/03/14 21:15:31;;;;;;;1.45;1.25;;;17.70;66.40;;;;;;2258095;63;30111;-72
2022/03/14 21:17:59;;;;;;;1.23;1.10;;;17.70;66.30;;;;;;2258404;62;30498;-73
2022/03/14 21:20:29;;;;;;;1.27;1.13;;;17.70;66.40;;;;;;2262367;62;30720;-73
2022/03/14 21:22:55;;;;;;;1.40;1.23;;;17.70;66.30;;;;;;2267596;62;30206;-72
2022/03/14 21:25:25;;;;;;;1.30;1.20;;;17.70;66.20;;;;;;2274662;62;30919;-71
2022/03/14 21:27:52;;;;;;;2.20;1.10;;;17.70;66.20;;;;;;2267626;62;30310;-71
2022/03/14 21:30:20;;;;;;;1.45;1.23;;;17.80;66.20;;;;;;2273037;62;30673;-72
2022/03/14 21:32:47;;;;;;;1.23;1.13;;;17.70;66.10;;;;;;2282033;62;30064;-71
2022/03/14 21:35:14;;;;;;;1.67;1.40;;;17.70;66.10;;;;;;2274722;62;31062;-72
2022/03/14 21:37:50;;;;;;;1.33;1.20;;;17.80;66.10;;;;;;2268466;62;31329;-72
2022/03/14 21:40:18;;;;;;;1.30;1.20;;;17.70;66.10;;;;;;2282217;62;30263;-71
2022/03/14 21:42:44;;;;;;;1.30;1.20;;;17.80;66.10;;;;;;2282991;62;30127;-72
2022/03/14 21:45:11;;;;;;;1.75;1.30;;;17.70;66.10;;;;;;2280226;62;30746;-74
2022/03/14 21:47:40;;;;;;;7.88;1.75;;;17.70;66.00;;;;;;2267826;62;30872;-69
2022/03/14 21:50:11;;;;;;;2.45;1.40;;;17.70;66.10;;;;;;2281556;62;30450;-69
2022/03/14 21:52:37;;;;;;;1.83;1.10;;;17.70;65.80;;;;;;2274526;62;30363;-69
2022/03/14 21:55:06;;;;;;;2.33;1.23;;;17.70;65.70;;;;;;2282532;62;30374;-69
2022/03/14 21:57:33;;;;;;;2.20;1.20;;;17.70;65.60;;;;;;2275032;62;30135;-69
2022/03/14 21:59:59;;;;;;;3.78;1.30;;;17.70;65.50;;;;;;2282760;62;30214;-70
2022/03/14 22:02:25;;;;;;;1.45;1.17;;;17.70;65.50;;;;;;2275488;62;30144;-73
2022/03/14 22:04:51;;;;;;;1.45;1.15;;;17.70;65.50;;;;;;2275274;62;30022;-70
2022/03/14 22:07:17;;;;;;;1.77;1.20;;;17.70;65.50;;;;;;2283067;62;31338;-71
2022/03/14 22:09:46;;;;;;;1.70;1.33;;;17.70;65.50;;;;;;2284302;62;30023;-69
2022/03/14 22:12:12;;;;;;;1.58;1.35;;;17.70;65.50;;;;;;2284217;62;30636;-71
2022/03/14 22:14:40;;;;;;;2.35;1.10;;;17.70;65.50;;;;;;2276493;62;32033;-73
2022/03/14 22:17:07;;;;;;;1.38;1.27;;;17.70;65.60;;;;;;2284187;62;30761;-71
2022/03/14 22:19:33;;;;;;;1.08;0.90;;;17.70;65.60;;;;;;2269869;62;30145;-70
2022/03/14 22:21:59;;;;;;;1.65;1.27;;;17.70;65.70;;;;;;2276498;62;30109;-70
2022/03/14 22:24:26;;;;;;;1.48;1.25;;;17.70;65.70;;;;;;2276713;62;31143;-70
2022/03/14 22:26:52;;;;;;;1.02;1.02;;;17.70;65.80;;;;;;2276314;62;30088;-69
2022/03/14 22:29:18;;;;;;;1.30;1.20;;;17.60;65.80;;;;;;2284159;62;30079;-69
2022/03/14 22:31:46;;;;;;;1.00;1.00;;;17.70;65.90;;;;;;2269987;62;30122;-70
2022/03/14 22:34:12;;;;;;;1.25;1.13;;;17.60;65.90;;;;;;2282819;62;31924;-69
2022/03/14 22:36:39;;;;;;;1.38;1.25;;;17.60;65.90;;;;;;2283711;62;30880;-69
2022/03/14 22:39:06;;;;;;;1.08;1.02;;;17.60;65.90;;;;;;2283881;62;30868;-69
2022/03/14 22:41:34;;;;;;;1.42;1.25;;;17.60;65.90;;;;;;2276468;62;30142;-70
2022/03/14 22:44:02;;;;;;;1.55;1.05;;;17.60;65.90;;;;;;2276766;62;30197;-70
2022/03/14 22:46:28;;;;;;;1.67;1.17;;;17.60;65.90;;;;;;2276593;62;30155;-69
2022/03/14 22:48:54;;;;;;;2.15;1.38;;;17.60;65.80;;;;;;2283746;62;30341;-70
2022/03/14 22:51:20;;;;;;;1.42;1.30;;;17.60;65.90;;;;;;2283721;62;30057;-69
2022/03/14 22:53:49;;;;;;;1.60;1.27;;;17.60;66.00;;;;;;2284879;62;30227;-69
